createdAt,value
2023-03-17T00:00:23.150Z,29
2023-03-17T00:02:56.700Z,27
2023-03-17T00:05:27.075Z,30
2023-03-17T00:08:00.239Z,24
2023-03-17T00:10:32.377Z,26
2023-03-17T00:13:02.743Z,24
2023-03-17T00:15:33.986Z,24
2023-03-17T00:18:04.364Z,31
2023-03-17T00:20:36.246Z,40
2023-03-17T00:23:06.592Z,40
2023-03-17T00:25:37.081Z,40
2023-03-17T00:28:07.338Z,41
2023-03-17T00:30:37.669Z,44
2023-03-17T00:33:10.381Z,44
2023-03-17T00:35:41.434Z,47
2023-03-17T00:38:11.857Z,44
2023-03-17T00:43:15.325Z,53
2023-03-17T00:45:45.533Z,49
2023-03-17T00:48:15.565Z,52
2023-03-17T00:50:46.012Z,52
2023-03-17T00:53:16.229Z,51
2023-03-17T00:55:47.635Z,53
2023-03-17T00:58:17.986Z,48
2023-03-17T01:00:50.173Z,52
2023-03-17T01:03:20.292Z,52
2023-03-17T01:05:50.936Z,53
2023-03-17T01:08:24.720Z,47
2023-03-17T01:10:55.601Z,49
2023-03-17T01:13:25.858Z,56
2023-03-17T01:15:57.272Z,48
2023-03-17T01:18:29.396Z,48
2023-03-17T01:21:00.012Z,48
2023-03-17T01:23:32.991Z,46
2023-03-17T01:26:03.327Z,47
2023-03-17T01:28:34.297Z,52
2023-03-17T01:31:04.948Z,48
2023-03-17T01:33:35.842Z,55
2023-03-17T01:36:06.489Z,49
2023-03-17T01:38:37.877Z,50
2023-03-17T01:41:08.253Z,54
2023-03-17T01:43:38.834Z,55
2023-03-17T01:46:09.748Z,52
2023-03-17T01:48:40.976Z,47
2023-03-17T01:51:11.483Z,47
2023-03-17T01:53:40.922Z,51
2023-03-17T01:56:12.170Z,52
2023-03-17T01:58:43.782Z,47
2023-03-17T02:01:13.298Z,44
2023-03-17T02:03:44.014Z,43
2023-03-17T02:06:15.090Z,44
2023-03-17T02:08:47.006Z,40
2023-03-17T02:11:17.835Z,44
2023-03-17T02:13:48.954Z,49
2023-03-17T02:16:19.693Z,51
2023-03-17T02:18:53.453Z,48
2023-03-17T02:21:25.380Z,34
2023-03-17T02:23:57.555Z,52
2023-03-17T02:26:28.562Z,46
2023-03-17T02:28:59.844Z,49
2023-03-17T02:31:30.779Z,48
2023-03-17T02:34:00.653Z,50
2023-03-17T02:36:32.751Z,51
2023-03-17T02:39:03.440Z,48
2023-03-17T02:41:34.378Z,44
2023-03-17T02:44:05.165Z,49
2023-03-17T02:46:35.766Z,44
2023-03-17T02:49:10.966Z,48
2023-03-17T02:51:43.063Z,52
2023-03-17T02:54:13.141Z,44
2023-03-17T02:56:43.827Z,47
2023-03-17T02:59:14.375Z,45
2023-03-17T03:01:45.189Z,47
2023-03-17T03:04:15.653Z,47
2023-03-17T03:06:46.137Z,48
2023-03-17T03:09:18.121Z,49
2023-03-17T03:11:48.673Z,49
2023-03-17T03:14:19.219Z,51
2023-03-17T03:16:50.067Z,46
2023-03-17T03:19:22.704Z,45
2023-03-17T03:21:53.733Z,49
2023-03-17T03:24:26.282Z,55
2023-03-17T03:26:57.119Z,52
2023-03-17T03:29:34.004Z,52
2023-03-17T03:32:04.608Z,53
2023-03-17T03:34:33.883Z,52
2023-03-17T03:37:04.050Z,49
2023-03-17T03:39:36.402Z,44
2023-03-17T03:42:11.312Z,48
2023-03-17T03:44:45.317Z,52
2023-03-17T03:47:15.621Z,50
2023-03-17T03:49:46.434Z,57
2023-03-17T03:52:17.311Z,52
2023-03-17T03:54:46.049Z,47
2023-03-17T03:57:16.685Z,44
2023-03-17T03:59:47.666Z,47
2023-03-17T04:02:21.227Z,47
2023-03-17T04:04:52.408Z,44
2023-03-17T04:07:22.493Z,41
2023-03-17T04:09:53.253Z,44
2023-03-17T04:12:27.739Z,47
2023-03-17T04:14:58.526Z,51
2023-03-17T04:17:29.253Z,44
2023-03-17T04:19:59.713Z,44
2023-03-17T04:22:32.483Z,44
2023-03-17T04:25:03.488Z,40
2023-03-17T04:27:33.488Z,39
2023-03-17T04:30:04.075Z,46
2023-03-17T04:32:34.572Z,56
2023-03-17T04:35:04.789Z,54
2023-03-17T04:37:35.762Z,51
2023-03-17T04:40:07.918Z,48
2023-03-17T04:42:38.100Z,57
2023-03-17T04:45:08.760Z,64
2023-03-17T04:47:39.539Z,60
2023-03-17T04:50:10.274Z,62
2023-03-17T04:52:41.536Z,60
2023-03-17T04:55:12.371Z,56
2023-03-17T04:57:43.640Z,55
2023-03-17T05:00:15.669Z,52
2023-03-17T05:02:47.238Z,50
2023-03-17T05:05:17.742Z,49
2023-03-17T05:07:50.128Z,47
2023-03-17T05:10:20.785Z,50
2023-03-17T05:12:52.557Z,48
2023-03-17T05:15:22.727Z,49
2023-03-17T05:17:53.511Z,56
2023-03-17T05:20:24.504Z,52
2023-03-17T05:22:54.843Z,52
2023-03-17T05:25:23.731Z,52
2023-03-17T05:27:53.902Z,52
2023-03-17T05:30:24.251Z,52
2023-03-17T05:32:56.377Z,48
2023-03-17T05:35:36.428Z,56
2023-03-17T05:38:06.801Z,56
2023-03-17T05:40:41.105Z,49
2023-03-17T05:43:11.951Z,47
2023-03-17T05:45:42.667Z,47
2023-03-17T05:48:13.865Z,44
2023-03-17T05:50:46.101Z,44
2023-03-17T05:53:16.650Z,48
2023-03-17T05:55:47.340Z,44
2023-03-17T05:58:22.299Z,44
2023-03-17T06:00:52.665Z,45
2023-03-17T06:03:26.487Z,40
2023-03-17T06:05:57.174Z,44
2023-03-17T06:08:29.844Z,39
2023-03-17T06:11:00.600Z,43
2023-03-17T06:13:33.770Z,40
2023-03-17T06:16:04.427Z,40
2023-03-17T06:18:35.112Z,38
2023-03-17T06:21:05.495Z,44
2023-03-17T06:23:40.252Z,39
2023-03-17T06:26:11.145Z,40
2023-03-17T06:28:45.800Z,36
2023-03-17T06:31:16.661Z,40
2023-03-17T06:33:47.963Z,40
2023-03-17T06:36:19.071Z,46
2023-03-17T06:38:49.856Z,38
2023-03-17T06:41:20.510Z,40
2023-03-17T06:43:51.622Z,36
2023-03-17T06:46:21.471Z,41
2023-03-17T06:48:51.910Z,44
2023-03-17T06:51:22.454Z,41
2023-03-17T06:53:58.258Z,44
2023-03-17T06:56:30.414Z,41
2023-03-17T06:59:03.010Z,33
2023-03-17T07:01:35.781Z,44
2023-03-17T07:04:06.702Z,42
2023-03-17T07:06:41.024Z,43
2023-03-17T07:09:13.790Z,40
2023-03-17T07:11:43.936Z,41
2023-03-17T07:16:49.694Z,45
2023-03-17T07:19:18.861Z,45
2023-03-17T07:21:49.230Z,40
2023-03-17T07:24:19.953Z,31
2023-03-17T07:26:52.099Z,37
2023-03-17T07:29:24.487Z,36
2023-03-17T07:31:54.941Z,41
2023-03-17T07:34:25.582Z,40
2023-03-17T07:36:56.842Z,36
2023-03-17T07:39:27.291Z,32
2023-03-17T07:41:57.707Z,36
2023-03-17T07:44:29.270Z,36
2023-03-17T07:46:59.723Z,44
2023-03-17T07:49:40.672Z,40
2023-03-17T07:52:12.135Z,46
2023-03-17T07:54:43.062Z,59
2023-03-17T07:57:12.615Z,43
2023-03-17T07:59:43.128Z,44
2023-03-17T08:02:14.729Z,47
2023-03-17T08:04:46.338Z,43
2023-03-17T08:07:16.946Z,45
2023-03-17T08:09:47.642Z,45
2023-03-17T08:12:18.268Z,41
2023-03-17T08:14:48.764Z,39
2023-03-17T08:17:26.533Z,40
2023-03-17T08:19:59.552Z,39
2023-03-17T08:22:31.203Z,56
2023-03-17T08:25:02.359Z,36
2023-03-17T08:27:34.661Z,35
2023-03-17T08:30:08.726Z,54
2023-03-17T08:32:39.375Z,45
2023-03-17T08:35:10.112Z,40
2023-03-17T08:37:40.286Z,36
2023-03-17T08:40:11.139Z,40
2023-03-17T08:42:41.634Z,40
2023-03-17T08:45:12.254Z,40
2023-03-17T08:47:43.065Z,40
2023-03-17T08:50:14.168Z,36
2023-03-17T08:52:43.427Z,37
2023-03-17T08:55:14.105Z,36
2023-03-17T08:57:44.979Z,34
2023-03-17T09:00:20.588Z,39
2023-03-17T09:02:51.419Z,38
2023-03-17T09:05:21.789Z,40
2023-03-17T09:07:54.669Z,38
2023-03-17T09:10:25.356Z,37
2023-03-17T09:12:57.449Z,40
2023-03-17T09:15:26.342Z,40
2023-03-17T09:17:56.557Z,40
2023-03-17T09:20:27.077Z,40
2023-03-17T09:22:57.646Z,36
2023-03-17T09:25:28.407Z,35
2023-03-17T09:27:59.014Z,32
2023-03-17T09:30:29.811Z,36
2023-03-17T09:33:03.985Z,36
2023-03-17T09:35:34.715Z,36
2023-03-17T09:38:13.794Z,36
2023-03-17T09:40:44.008Z,31
2023-03-17T09:43:21.337Z,45
2023-03-17T09:45:53.461Z,76
2023-03-17T09:48:25.117Z,105
2023-03-17T09:51:00.290Z,42
2023-03-17T09:53:31.710Z,35
2023-03-17T09:56:02.226Z,44
2023-03-17T09:58:32.389Z,31
2023-03-17T10:01:02.619Z,31
2023-03-17T10:03:35.291Z,36
2023-03-17T10:06:05.773Z,32
2023-03-17T10:08:35.988Z,36
2023-03-17T10:11:06.098Z,32
2023-03-17T10:13:36.648Z,36
2023-03-17T10:16:07.111Z,36
2023-03-17T10:18:38.986Z,40
2023-03-17T10:21:18.530Z,32
2023-03-17T10:23:48.661Z,32
2023-03-17T10:26:19.216Z,35
2023-03-17T10:28:49.527Z,25
2023-03-17T10:31:19.726Z,32
2023-03-17T10:33:50.119Z,31
2023-03-17T10:36:21.094Z,47
2023-03-17T10:38:52.471Z,24
2023-03-17T10:41:22.580Z,28
2023-03-17T10:43:52.701Z,33
2023-03-17T10:46:23.482Z,24
2023-03-17T10:48:53.668Z,24
2023-03-17T10:51:31.079Z,36
2023-03-17T10:54:01.424Z,24
2023-03-17T10:56:30.816Z,29
2023-03-17T10:59:01.117Z,27
2023-03-17T11:01:35.049Z,25
2023-03-17T11:04:05.465Z,24
2023-03-17T11:06:36.338Z,30
2023-03-17T11:09:09.224Z,14
2023-03-17T11:11:39.706Z,12
2023-03-17T11:14:08.609Z,16
2023-03-17T11:16:38.812Z,20
2023-03-17T11:19:07.695Z,17
2023-03-17T11:21:37.952Z,22
2023-03-17T11:24:08.411Z,23
2023-03-17T11:26:38.967Z,20
2023-03-17T11:29:09.267Z,32
2023-03-17T11:31:39.470Z,24
2023-03-17T11:34:10.368Z,34
2023-03-17T11:36:41.026Z,12
2023-03-17T11:39:13.590Z,16
2023-03-17T11:41:43.833Z,17
2023-03-17T11:44:19.441Z,16
2023-03-17T11:46:50.080Z,17
2023-03-17T11:49:20.105Z,15
2023-03-17T11:51:55.057Z,13
2023-03-17T11:54:24.171Z,16
2023-03-17T11:56:54.624Z,15
2023-03-17T11:59:25.308Z,16
2023-03-17T12:01:55.891Z,18
2023-03-17T12:04:26.205Z,17
2023-03-17T12:06:59.221Z,20
2023-03-17T12:09:30.494Z,16
2023-03-17T12:12:00.992Z,15
2023-03-17T12:14:32.996Z,151
2023-03-17T12:17:06.516Z,41
2023-03-17T12:19:37.603Z,20
2023-03-17T12:22:09.054Z,21
2023-03-17T12:24:43.116Z,16
2023-03-17T12:27:13.617Z,18
2023-03-17T12:29:45.367Z,15
2023-03-17T12:32:15.373Z,16
2023-03-17T12:34:45.542Z,20
2023-03-17T12:37:15.779Z,19
2023-03-17T12:39:45.044Z,12
2023-03-17T12:42:24.828Z,16
2023-03-17T12:44:58.178Z,16
2023-03-17T12:47:29.117Z,16
2023-03-17T12:49:59.391Z,16
2023-03-17T12:52:30.415Z,15
2023-03-17T12:55:02.397Z,16
2023-03-17T12:57:33.099Z,16
2023-03-17T13:00:07.051Z,12
2023-03-17T13:02:41.564Z,16
2023-03-17T13:05:12.630Z,16
2023-03-17T13:07:47.319Z,30
2023-03-17T13:10:18.148Z,36
2023-03-17T13:12:48.560Z,20
2023-03-17T13:15:19.601Z,16
2023-03-17T13:17:50.465Z,20
2023-03-17T13:20:23.138Z,20
2023-03-17T13:22:58.741Z,16
2023-03-17T13:25:29.396Z,12
2023-03-17T13:27:59.422Z,12
2023-03-17T13:30:30.585Z,15
2023-03-17T13:33:08.050Z,18
2023-03-17T13:35:39.682Z,20
2023-03-17T13:38:17.191Z,20
2023-03-17T13:40:53.849Z,12
2023-03-17T13:43:24.403Z,12
2023-03-17T13:45:55.847Z,16
2023-03-17T13:48:26.263Z,12
2023-03-17T13:50:59.643Z,16
2023-03-17T13:53:29.851Z,16
2023-03-17T13:56:00.983Z,12
2023-03-17T13:58:31.416Z,12
2023-03-17T14:01:02.136Z,12
2023-03-17T14:03:32.976Z,14
2023-03-17T14:06:07.540Z,20
2023-03-17T14:08:40.289Z,16
2023-03-17T14:11:10.731Z,10
2023-03-17T14:13:41.420Z,18
2023-03-17T14:16:12.261Z,16
2023-03-17T14:18:45.794Z,12
2023-03-17T14:21:16.328Z,12
2023-03-17T14:23:50.551Z,12
2023-03-17T14:26:21.594Z,16
2023-03-17T14:28:52.045Z,12
2023-03-17T14:31:21.842Z,19
2023-03-17T14:33:52.748Z,16
2023-03-17T14:36:24.516Z,20
2023-03-17T14:38:59.552Z,14
2023-03-17T14:41:33.495Z,28
2023-03-17T14:44:03.636Z,14
2023-03-17T14:46:33.776Z,16
2023-03-17T14:49:03.637Z,12
2023-03-17T14:51:33.972Z,13
2023-03-17T14:54:04.427Z,9
2023-03-17T14:56:34.789Z,10
2023-03-17T14:59:07.390Z,24
2023-03-17T15:01:37.413Z,12
2023-03-17T15:04:07.434Z,16
2023-03-17T15:06:38.814Z,36
2023-03-17T15:09:08.850Z,45
2023-03-17T15:11:39.099Z,56
2023-03-17T15:14:09.587Z,33
2023-03-17T15:16:40.017Z,44
2023-03-17T15:19:10.257Z,53
2023-03-17T15:21:41.988Z,48
2023-03-17T15:24:12.487Z,56
2023-03-17T15:26:44.017Z,24
2023-03-17T15:29:15.258Z,37
2023-03-17T15:31:45.616Z,75
2023-03-17T15:34:16.314Z,48
2023-03-17T15:36:46.820Z,32
2023-03-17T15:39:17.274Z,35
2023-03-17T15:41:47.963Z,32
2023-03-17T15:44:18.700Z,36
2023-03-17T15:46:48.825Z,29
2023-03-17T15:49:19.965Z,26
2023-03-17T15:51:50.108Z,29
2023-03-17T15:54:21.230Z,16
2023-03-17T15:56:51.477Z,28
2023-03-17T15:59:22.031Z,16
2023-03-17T16:01:53.096Z,20
2023-03-17T16:04:23.772Z,24
2023-03-17T16:06:56.765Z,19
2023-03-17T16:09:27.115Z,53
2023-03-17T16:12:09.831Z,44
2023-03-17T16:14:40.117Z,32
2023-03-17T16:17:10.137Z,25
2023-03-17T16:19:38.901Z,33
2023-03-17T16:22:12.509Z,32
2023-03-17T16:24:46.671Z,26
2023-03-17T16:27:18.467Z,33
2023-03-17T16:29:49.227Z,16
2023-03-17T16:32:19.608Z,32
2023-03-17T16:34:49.772Z,48
2023-03-17T16:37:22.518Z,48
2023-03-17T16:39:57.307Z,44
2023-03-17T16:42:27.488Z,29
2023-03-17T16:44:57.853Z,28
2023-03-17T16:47:28.325Z,21
2023-03-17T16:49:59.573Z,21
2023-03-17T16:52:29.813Z,28
2023-03-17T16:54:59.971Z,24
2023-03-17T16:57:34.774Z,16
2023-03-17T17:00:05.965Z,16
2023-03-17T17:02:39.780Z,12
2023-03-17T17:05:09.846Z,12
2023-03-17T17:07:44.368Z,20
2023-03-17T17:10:14.350Z,9
2023-03-17T17:12:44.540Z,16
2023-03-17T17:15:16.254Z,19
2023-03-17T17:17:47.747Z,12
2023-03-17T17:20:18.768Z,15
2023-03-17T17:22:48.750Z,15
2023-03-17T17:25:19.419Z,13
2023-03-17T17:27:49.925Z,12
2023-03-17T17:30:20.085Z,12
2023-03-17T17:32:50.324Z,20
2023-03-17T17:35:20.377Z,44
2023-03-17T17:37:54.308Z,51
2023-03-17T17:40:24.834Z,52
2023-03-17T17:42:55.037Z,48
2023-03-17T17:45:25.787Z,28
2023-03-17T17:47:56.629Z,28
2023-03-17T17:50:27.005Z,36
2023-03-17T17:52:57.521Z,44
2023-03-17T17:55:38.812Z,40
2023-03-17T17:58:08.747Z,44
2023-03-17T18:00:39.237Z,45
2023-03-17T18:03:19.343Z,52
2023-03-17T18:05:49.720Z,73
2023-03-17T18:08:19.859Z,80
2023-03-17T18:10:52.070Z,80
2023-03-17T18:13:20.529Z,68
2023-03-17T18:15:50.765Z,65
2023-03-17T18:18:22.082Z,75
2023-03-17T18:20:52.381Z,84
2023-03-17T18:23:27.180Z,88
2023-03-17T18:26:00.927Z,119
2023-03-17T18:28:31.791Z,144
2023-03-17T18:31:02.422Z,142
2023-03-17T18:33:32.774Z,132
2023-03-17T18:36:03.365Z,120
2023-03-17T18:38:35.704Z,105
2023-03-17T18:41:06.555Z,109
2023-03-17T18:43:36.952Z,109
2023-03-17T18:46:11.771Z,122
2023-03-17T18:48:47.300Z,121
2023-03-17T18:51:18.241Z,123
2023-03-17T18:53:48.528Z,117
2023-03-17T18:56:20.141Z,116
2023-03-17T18:58:54.272Z,108
2023-03-17T19:01:24.551Z,119
2023-03-17T19:03:54.775Z,111
2023-03-17T19:06:25.052Z,108
2023-03-17T19:08:57.255Z,122
2023-03-17T19:11:28.079Z,125
2023-03-17T19:13:58.381Z,136
2023-03-17T19:16:29.993Z,148
2023-03-17T19:19:01.396Z,143
2023-03-17T19:21:32.241Z,152
2023-03-17T19:24:04.782Z,156
2023-03-17T19:26:35.136Z,120
2023-03-17T19:29:06.250Z,128
2023-03-17T19:31:36.554Z,129
2023-03-17T19:34:06.977Z,131
2023-03-17T19:36:37.080Z,131
2023-03-17T19:39:17.512Z,132
2023-03-17T19:41:47.697Z,136
2023-03-17T19:44:18.005Z,136
2023-03-17T19:46:46.952Z,132
2023-03-17T19:49:16.958Z,124
2023-03-17T19:51:47.419Z,114
2023-03-17T19:54:17.868Z,119
2023-03-17T19:56:48.164Z,120
2023-03-17T19:59:18.592Z,109
2023-03-17T20:01:48.967Z,113
2023-03-17T20:04:19.142Z,122
2023-03-17T20:06:49.382Z,129
2023-03-17T20:09:19.709Z,133
2023-03-17T20:11:49.834Z,117
2023-03-17T20:14:20.270Z,131
2023-03-17T20:16:50.405Z,123
2023-03-17T20:19:20.641Z,123
2023-03-17T20:21:53.764Z,114
2023-03-17T20:24:24.370Z,125
2023-03-17T20:26:54.171Z,118
2023-03-17T20:29:24.546Z,126
2023-03-17T20:31:54.711Z,116
2023-03-17T20:34:24.942Z,116
2023-03-17T20:36:55.071Z,110
2023-03-17T20:39:25.410Z,111
2023-03-17T20:41:55.782Z,115
2023-03-17T20:44:25.906Z,108
2023-03-17T20:46:56.061Z,99
2023-03-17T20:49:26.347Z,115
2023-03-17T20:51:56.414Z,118
2023-03-17T20:54:26.731Z,112
2023-03-17T20:56:57.503Z,109
2023-03-17T20:59:28.505Z,103
2023-03-17T21:01:58.739Z,100
2023-03-17T21:04:29.115Z,99
2023-03-17T21:06:58.962Z,97
2023-03-17T21:09:29.401Z,100
2023-03-17T21:11:59.728Z,99
2023-03-17T21:14:29.744Z,95
2023-03-17T21:16:59.862Z,100
2023-03-17T21:19:31.193Z,98
2023-03-17T21:22:01.424Z,94
2023-03-17T21:24:31.725Z,92
2023-03-17T21:27:02.417Z,93
2023-03-17T21:29:32.456Z,100
2023-03-17T21:32:02.615Z,93
2023-03-17T21:34:32.747Z,89
2023-03-17T21:37:03.083Z,92
2023-03-17T21:39:33.116Z,98
2023-03-17T21:42:03.343Z,98
2023-03-17T21:44:33.996Z,104
2023-03-17T21:47:04.267Z,99
2023-03-17T21:49:34.712Z,101
2023-03-17T21:52:04.820Z,97
2023-03-17T21:54:35.436Z,97
2023-03-17T21:57:06.067Z,105
2023-03-17T21:59:36.404Z,105
2023-03-17T22:02:10.256Z,100
2023-03-17T22:04:40.382Z,100
2023-03-17T22:07:11.035Z,100
2023-03-17T22:09:41.663Z,99
2023-03-17T22:12:12.616Z,109
2023-03-17T22:14:42.512Z,99
2023-03-17T22:17:13.102Z,112
2023-03-17T22:19:43.212Z,95
2023-03-17T22:22:14.224Z,101
2023-03-17T22:24:46.286Z,102
2023-03-17T22:27:16.739Z,96
2023-03-17T22:29:47.685Z,107
2023-03-17T22:32:17.969Z,92
2023-03-17T22:34:48.482Z,98
2023-03-17T22:37:19.082Z,96
2023-03-17T22:39:51.600Z,101
2023-03-17T22:42:21.996Z,94
2023-03-17T22:44:52.681Z,89
2023-03-17T22:47:23.521Z,99
2023-03-17T22:49:53.845Z,111
2023-03-17T22:52:23.712Z,88
2023-03-17T22:54:54.062Z,95
2023-03-17T22:57:26.063Z,106
2023-03-17T22:59:56.476Z,108
2023-03-17T23:02:27.440Z,104
2023-03-17T23:04:58.178Z,94
2023-03-17T23:07:29.249Z,107
2023-03-17T23:09:59.813Z,125
2023-03-17T23:12:30.265Z,111
2023-03-17T23:15:01.315Z,117
2023-03-17T23:17:31.694Z,114
2023-03-17T23:20:02.228Z,104
2023-03-17T23:22:33.088Z,114
2023-03-17T23:25:03.463Z,117
2023-03-17T23:27:34.427Z,112
2023-03-17T23:30:04.411Z,124
2023-03-17T23:32:34.814Z,121
2023-03-17T23:35:05.298Z,111
2023-03-17T23:37:36.868Z,116
2023-03-17T23:40:07.971Z,117
2023-03-17T23:42:38.596Z,120
2023-03-17T23:45:09.237Z,137
2023-03-17T23:47:39.644Z,115
2023-03-17T23:50:10.520Z,120
2023-03-17T23:52:39.328Z,120
2023-03-17T23:55:09.593Z,113
2023-03-17T23:57:40.025Z,107
